sensor_id;sensor_type;location;lat;lon;timestamp;P1;durP1;ratioP1;P2;durP2;ratioP2
25810;SDS011;13645;52.460;13.910;2022-10-16T00:01:26;4.25;;;3.20;;
25810;SDS011;13645;52.460;13.910;2022-10-16T00:03:56;4.40;;;3.33;;
25810;SDS011;13645;52.460;13.910;2022-10-16T00:06:24;4.20;;;3.22;;
25810;SDS011;13645;52.460;13.910;2022-10-16T00:08:51;6.88;;;3.22;;
25810;SDS011;13645;52.460;13.910;2022-10-16T00:11:20;6.78;;;3.50;;
25810;SDS011;13645;52.460;13.910;2022-10-16T00:13:49;5.03;;;3.20;;
25810;SDS011;13645;52.460;13.910;2022-10-16T00:16:18;3.88;;;2.78;;
25810;SDS011;13645;52.460;13.910;2022-10-16T00:18:45;4.10;;;2.90;;
25810;SDS011;13645;52.460;13.910;2022-10-16T00:21:16;4.72;;;2.92;;
25810;SDS011;13645;52.460;13.910;2022-10-16T00:23:46;3.63;;;3.03;;
25810;SDS011;13645;52.460;13.910;2022-10-16T00:26:13;7.68;;;3.40;;
25810;SDS011;13645;52.460;13.910;2022-10-16T00:28:47;3.40;;;2.90;;
25810;SDS011;13645;52.460;13.910;2022-10-16T00:31:15;4.95;;;2.60;;
25810;SDS011;13645;52.460;13.910;2022-10-16T00:33:44;4.53;;;2.80;;
25810;SDS011;13645;52.460;13.910;2022-10-16T00:36:13;4.35;;;2.92;;
25810;SDS011;13645;52.460;13.910;2022-10-16T00:38:41;3.83;;;2.50;;
25810;SDS011;13645;52.460;13.910;2022-10-16T00:41:12;3.67;;;2.58;;
25810;SDS011;13645;52.460;13.910;2022-10-16T00:43:43;4.35;;;2.75;;
25810;SDS011;13645;52.460;13.910;2022-10-16T00:49:11;6.07;;;2.72;;
25810;SDS011;13645;52.460;13.910;2022-10-16T00:51:46;3.13;;;2.70;;
25810;SDS011;13645;52.460;13.910;2022-10-16T00:54:22;5.72;;;2.50;;
25810;SDS011;13645;52.460;13.910;2022-10-16T00:56:52;4.55;;;2.40;;
25810;SDS011;13645;52.460;13.910;2022-10-16T01:01:54;5.43;;;2.50;;
25810;SDS011;13645;52.460;13.910;2022-10-16T01:04:22;3.20;;;2.33;;
25810;SDS011;13645;52.460;13.910;2022-10-16T01:07:03;4.50;;;2.53;;
25810;SDS011;13645;52.460;13.910;2022-10-16T01:12:45;3.70;;;2.67;;
25810;SDS011;13645;52.460;13.910;2022-10-16T01:18:57;3.13;;;2.45;;
25810;SDS011;13645;52.460;13.910;2022-10-16T01:21:10;3.22;;;2.47;;
25810;SDS011;13645;52.460;13.910;2022-10-16T01:27:08;4.30;;;2.42;;
25810;SDS011;13645;52.460;13.910;2022-10-16T01:29:42;2.78;;;2.50;;
25810;SDS011;13645;52.460;13.910;2022-10-16T01:32:30;3.67;;;2.80;;
25810;SDS011;13645;52.460;13.910;2022-10-16T01:35:05;3.20;;;2.42;;
25810;SDS011;13645;52.460;13.910;2022-10-16T01:37:56;2.40;;;2.20;;
25810;SDS011;13645;52.460;13.910;2022-10-16T01:40:31;2.95;;;2.30;;
25810;SDS011;13645;52.460;13.910;2022-10-16T01:43:22;3.72;;;2.22;;
25810;SDS011;13645;52.460;13.910;2022-10-16T01:45:50;3.63;;;2.40;;
25810;SDS011;13645;52.460;13.910;2022-10-16T01:48:18;2.47;;;2.17;;
25810;SDS011;13645;52.460;13.910;2022-10-16T01:50:52;3.45;;;2.47;;
25810;SDS011;13645;52.460;13.910;2022-10-16T01:53:24;2.53;;;2.20;;
25810;SDS011;13645;52.460;13.910;2022-10-16T01:55:52;2.40;;;2.20;;
25810;SDS011;13645;52.460;13.910;2022-10-16T01:58:21;3.17;;;2.30;;
25810;SDS011;13645;52.460;13.910;2022-10-16T02:00:50;4.53;;;2.38;;
25810;SDS011;13645;52.460;13.910;2022-10-16T02:03:20;4.50;;;2.50;;
25810;SDS011;13645;52.460;13.910;2022-10-16T02:08:23;2.30;;;2.05;;
25810;SDS011;13645;52.460;13.910;2022-10-16T02:10:52;3.00;;;2.03;;
25810;SDS011;13645;52.460;13.910;2022-10-16T02:13:21;3.40;;;2.35;;
25810;SDS011;13645;52.460;13.910;2022-10-16T02:15:52;2.95;;;2.17;;
25810;SDS011;13645;52.460;13.910;2022-10-16T02:18:19;2.58;;;2.30;;
25810;SDS011;13645;52.460;13.910;2022-10-16T02:20:53;3.30;;;2.22;;
25810;SDS011;13645;52.460;13.910;2022-10-16T02:23:35;3.60;;;2.20;;
25810;SDS011;13645;52.460;13.910;2022-10-16T02:26:12;2.30;;;2.10;;
25810;SDS011;13645;52.460;13.910;2022-10-16T02:28:46;3.35;;;2.10;;
25810;SDS011;13645;52.460;13.910;2022-10-16T02:31:22;4.13;;;2.03;;
25810;SDS011;13645;52.460;13.910;2022-10-16T02:33:55;5.63;;;2.08;;
25810;SDS011;13645;52.460;13.910;2022-10-16T02:36:25;3.17;;;2.35;;
25810;SDS011;13645;52.460;13.910;2022-10-16T02:38:53;6.75;;;2.55;;
25810;SDS011;13645;52.460;13.910;2022-10-16T02:41:21;3.28;;;2.03;;
25810;SDS011;13645;52.460;13.910;2022-10-16T02:43:49;3.03;;;2.30;;
25810;SDS011;13645;52.460;13.910;2022-10-16T02:46:16;5.22;;;2.10;;
25810;SDS011;13645;52.460;13.910;2022-10-16T02:48:43;2.38;;;2.00;;
25810;SDS011;13645;52.460;13.910;2022-10-16T02:51:10;3.38;;;2.10;;
25810;SDS011;13645;52.460;13.910;2022-10-16T02:53:36;3.70;;;2.10;;
25810;SDS011;13645;52.460;13.910;2022-10-16T02:56:06;2.20;;;2.00;;
25810;SDS011;13645;52.460;13.910;2022-10-16T02:58:33;3.40;;;2.00;;
25810;SDS011;13645;52.460;13.910;2022-10-16T03:01:02;3.85;;;2.20;;
25810;SDS011;13645;52.460;13.910;2022-10-16T03:03:29;3.05;;;2.22;;
25810;SDS011;13645;52.460;13.910;2022-10-16T03:05:56;4.35;;;2.08;;
25810;SDS011;13645;52.460;13.910;2022-10-16T03:08:23;5.03;;;2.25;;
25810;SDS011;13645;52.460;13.910;2022-10-16T03:10:51;2.83;;;1.90;;
25810;SDS011;13645;52.460;13.910;2022-10-16T03:13:18;3.80;;;1.92;;
25810;SDS011;13645;52.460;13.910;2022-10-16T03:15:46;3.05;;;2.13;;
25810;SDS011;13645;52.460;13.910;2022-10-16T03:18:19;3.40;;;2.08;;
25810;SDS011;13645;52.460;13.910;2022-10-16T03:20:48;5.60;;;2.00;;
25810;SDS011;13645;52.460;13.910;2022-10-16T03:23:18;3.35;;;1.90;;
25810;SDS011;13645;52.460;13.910;2022-10-16T03:25:45;6.13;;;1.80;;
25810;SDS011;13645;52.460;13.910;2022-10-16T03:28:13;2.85;;;1.92;;
25810;SDS011;13645;52.460;13.910;2022-10-16T03:30:40;2.30;;;2.08;;
25810;SDS011;13645;52.460;13.910;2022-10-16T03:33:07;3.03;;;2.30;;
25810;SDS011;13645;52.460;13.910;2022-10-16T03:35:35;3.03;;;1.88;;
25810;SDS011;13645;52.460;13.910;2022-10-16T03:38:02;3.78;;;1.80;;
25810;SDS011;13645;52.460;13.910;2022-10-16T03:40:31;2.50;;;1.90;;
25810;SDS011;13645;52.460;13.910;2022-10-16T03:42:58;4.68;;;2.00;;
25810;SDS011;13645;52.460;13.910;2022-10-16T03:45:25;5.05;;;2.00;;
25810;SDS011;13645;52.460;13.910;2022-10-16T03:47:56;3.03;;;1.63;;
25810;SDS011;13645;52.460;13.910;2022-10-16T03:50:23;2.05;;;1.85;;
25810;SDS011;13645;52.460;13.910;2022-10-16T03:52:52;2.45;;;2.00;;
25810;SDS011;13645;52.460;13.910;2022-10-16T03:55:19;1.80;;;1.60;;
25810;SDS011;13645;52.460;13.910;2022-10-16T03:57:46;6.30;;;1.90;;
25810;SDS011;13645;52.460;13.910;2022-10-16T04:00:13;3.85;;;1.90;;
25810;SDS011;13645;52.460;13.910;2022-10-16T04:02:42;3.88;;;2.10;;
25810;SDS011;13645;52.460;13.910;2022-10-16T04:05:08;1.90;;;1.70;;
25810;SDS011;13645;52.460;13.910;2022-10-16T04:07:35;2.55;;;1.90;;
25810;SDS011;13645;52.460;13.910;2022-10-16T04:10:02;4.57;;;1.80;;
25810;SDS011;13645;52.460;13.910;2022-10-16T04:12:29;3.58;;;2.15;;
25810;SDS011;13645;52.460;13.910;2022-10-16T04:14:57;5.18;;;2.10;;
25810;SDS011;13645;52.460;13.910;2022-10-16T04:17:24;3.95;;;1.80;;
25810;SDS011;13645;52.460;13.910;2022-10-16T04:19:51;3.45;;;2.00;;
25810;SDS011;13645;52.460;13.910;2022-10-16T04:22:17;2.10;;;1.83;;
25810;SDS011;13645;52.460;13.910;2022-10-16T04:24:44;3.67;;;2.00;;
25810;SDS011;13645;52.460;13.910;2022-10-16T04:27:20;4.53;;;1.90;;
25810;SDS011;13645;52.460;13.910;2022-10-16T04:29:46;7.75;;;2.03;;
25810;SDS011;13645;52.460;13.910;2022-10-16T04:32:13;4.78;;;2.00;;
25810;SDS011;13645;52.460;13.910;2022-10-16T04:34:43;3.45;;;2.00;;
25810;SDS011;13645;52.460;13.910;2022-10-16T04:37:09;4.45;;;1.98;;
25810;SDS011;13645;52.460;13.910;2022-10-16T04:39:36;2.53;;;2.00;;
25810;SDS011;13645;52.460;13.910;2022-10-16T04:42:03;4.43;;;2.00;;
25810;SDS011;13645;52.460;13.910;2022-10-16T04:44:29;2.92;;;1.90;;
25810;SDS011;13645;52.460;13.910;2022-10-16T04:46:56;2.35;;;1.80;;
25810;SDS011;13645;52.460;13.910;2022-10-16T04:49:23;6.10;;;2.05;;
25810;SDS011;13645;52.460;13.910;2022-10-16T04:51:49;2.30;;;1.80;;
25810;SDS011;13645;52.460;13.910;2022-10-16T04:54:19;3.33;;;2.10;;
25810;SDS011;13645;52.460;13.910;2022-10-16T04:56:46;4.32;;;2.17;;
25810;SDS011;13645;52.460;13.910;2022-10-16T04:59:16;2.28;;;1.80;;
25810;SDS011;13645;52.460;13.910;2022-10-16T05:01:44;2.30;;;1.85;;
25810;SDS011;13645;52.460;13.910;2022-10-16T05:04:11;3.88;;;2.00;;
25810;SDS011;13645;52.460;13.910;2022-10-16T05:06:38;3.47;;;1.90;;
25810;SDS011;13645;52.460;13.910;2022-10-16T05:09:05;2.30;;;1.90;;
25810;SDS011;13645;52.460;13.910;2022-10-16T05:11:33;3.78;;;1.90;;
25810;SDS011;13645;52.460;13.910;2022-10-16T05:14:00;7.00;;;2.25;;
25810;SDS011;13645;52.460;13.910;2022-10-16T05:16:30;9.05;;;1.77;;
25810;SDS011;13645;52.460;13.910;2022-10-16T05:19:03;4.30;;;1.90;;
25810;SDS011;13645;52.460;13.910;2022-10-16T05:21:53;3.25;;;2.00;;
25810;SDS011;13645;52.460;13.910;2022-10-16T05:24:19;2.25;;;2.05;;
25810;SDS011;13645;52.460;13.910;2022-10-16T05:26:46;2.75;;;1.70;;
25810;SDS011;13645;52.460;13.910;2022-10-16T05:29:13;5.00;;;2.20;;
25810;SDS011;13645;52.460;13.910;2022-10-16T05:31:40;5.18;;;2.30;;
25810;SDS011;13645;52.460;13.910;2022-10-16T05:34:07;3.92;;;2.08;;
25810;SDS011;13645;52.460;13.910;2022-10-16T05:36:35;6.15;;;1.98;;
25810;SDS011;13645;52.460;13.910;2022-10-16T05:39:05;5.03;;;2.15;;
25810;SDS011;13645;52.460;13.910;2022-10-16T05:41:50;6.53;;;1.92;;
25810;SDS011;13645;52.460;13.910;2022-10-16T05:44:24;4.55;;;2.13;;
25810;SDS011;13645;52.460;13.910;2022-10-16T05:46:51;3.00;;;1.90;;
25810;SDS011;13645;52.460;13.910;2022-10-16T05:49:17;4.53;;;2.15;;
25810;SDS011;13645;52.460;13.910;2022-10-16T05:51:44;9.13;;;2.38;;
25810;SDS011;13645;52.460;13.910;2022-10-16T05:54:11;2.88;;;2.10;;
25810;SDS011;13645;52.460;13.910;2022-10-16T05:56:37;3.33;;;2.35;;
25810;SDS011;13645;52.460;13.910;2022-10-16T05:59:04;2.38;;;2.08;;
25810;SDS011;13645;52.460;13.910;2022-10-16T06:01:31;2.67;;;2.20;;
25810;SDS011;13645;52.460;13.910;2022-10-16T06:03:58;2.83;;;2.05;;
25810;SDS011;13645;52.460;13.910;2022-10-16T06:06:26;6.03;;;2.30;;
25810;SDS011;13645;52.460;13.910;2022-10-16T06:08:57;3.63;;;2.00;;
25810;SDS011;13645;52.460;13.910;2022-10-16T06:11:24;2.60;;;2.20;;
25810;SDS011;13645;52.460;13.910;2022-10-16T06:13:56;4.05;;;2.10;;
25810;SDS011;13645;52.460;13.910;2022-10-16T06:16:26;1.83;;;1.70;;
25810;SDS011;13645;52.460;13.910;2022-10-16T06:18:53;6.20;;;2.15;;
25810;SDS011;13645;52.460;13.910;2022-10-16T06:21:26;3.22;;;1.98;;
25810;SDS011;13645;52.460;13.910;2022-10-16T06:23:55;3.92;;;2.65;;
25810;SDS011;13645;52.460;13.910;2022-10-16T06:26:23;8.35;;;3.83;;
25810;SDS011;13645;52.460;13.910;2022-10-16T06:28:51;24.70;;;18.77;;
25810;SDS011;13645;52.460;13.910;2022-10-16T06:31:20;9.48;;;7.75;;
25810;SDS011;13645;52.460;13.910;2022-10-16T06:33:50;5.78;;;2.70;;
25810;SDS011;13645;52.460;13.910;2022-10-16T06:36:17;2.17;;;1.98;;
25810;SDS011;13645;52.460;13.910;2022-10-16T06:38:44;3.25;;;2.60;;
25810;SDS011;13645;52.460;13.910;2022-10-16T06:41:13;2.42;;;2.20;;
25810;SDS011;13645;52.460;13.910;2022-10-16T06:43:41;2.67;;;2.20;;
25810;SDS011;13645;52.460;13.910;2022-10-16T06:46:09;5.25;;;2.10;;
25810;SDS011;13645;52.460;13.910;2022-10-16T06:48:37;3.97;;;1.90;;
25810;SDS011;13645;52.460;13.910;2022-10-16T06:51:05;3.08;;;2.17;;
25810;SDS011;13645;52.460;13.910;2022-10-16T06:53:35;5.18;;;1.83;;
25810;SDS011;13645;52.460;13.910;2022-10-16T06:56:16;4.00;;;1.80;;
25810;SDS011;13645;52.460;13.910;2022-10-16T06:58:44;3.75;;;1.75;;
25810;SDS011;13645;52.460;13.910;2022-10-16T07:01:13;3.47;;;1.90;;
25810;SDS011;13645;52.460;13.910;2022-10-16T07:03:41;2.08;;;1.60;;
25810;SDS011;13645;52.460;13.910;2022-10-16T07:06:09;2.58;;;1.65;;
25810;SDS011;13645;52.460;13.910;2022-10-16T07:08:38;3.53;;;1.58;;
25810;SDS011;13645;52.460;13.910;2022-10-16T07:11:10;2.63;;;1.70;;
25810;SDS011;13645;52.460;13.910;2022-10-16T07:13:41;2.75;;;2.40;;
25810;SDS011;13645;52.460;13.910;2022-10-16T07:16:13;2.85;;;2.22;;
25810;SDS011;13645;52.460;13.910;2022-10-16T07:18:44;2.67;;;1.98;;
25810;SDS011;13645;52.460;13.910;2022-10-16T07:21:13;5.15;;;1.92;;
25810;SDS011;13645;52.460;13.910;2022-10-16T07:23:41;1.73;;;1.63;;
25810;SDS011;13645;52.460;13.910;2022-10-16T07:26:09;3.67;;;1.75;;
25810;SDS011;13645;52.460;13.910;2022-10-16T07:28:37;4.88;;;1.88;;
25810;SDS011;13645;52.460;13.910;2022-10-16T07:31:06;3.22;;;1.70;;
25810;SDS011;13645;52.460;13.910;2022-10-16T07:33:37;3.45;;;1.83;;
25810;SDS011;13645;52.460;13.910;2022-10-16T07:36:05;1.95;;;1.52;;
25810;SDS011;13645;52.460;13.910;2022-10-16T07:38:32;3.95;;;1.60;;
25810;SDS011;13645;52.460;13.910;2022-10-16T07:40:59;2.00;;;1.60;;
25810;SDS011;13645;52.460;13.910;2022-10-16T07:43:28;4.00;;;1.50;;
25810;SDS011;13645;52.460;13.910;2022-10-16T07:45:55;2.83;;;1.27;;
25810;SDS011;13645;52.460;13.910;2022-10-16T07:48:27;1.40;;;1.23;;
25810;SDS011;13645;52.460;13.910;2022-10-16T07:50:58;2.95;;;1.95;;
25810;SDS011;13645;52.460;13.910;2022-10-16T07:53:26;3.15;;;1.70;;
25810;SDS011;13645;52.460;13.910;2022-10-16T07:55:57;3.65;;;1.58;;
25810;SDS011;13645;52.460;13.910;2022-10-16T07:58:28;5.93;;;2.00;;
25810;SDS011;13645;52.460;13.910;2022-10-16T08:00:55;6.32;;;2.67;;
25810;SDS011;13645;52.460;13.910;2022-10-16T08:03:22;1.83;;;1.70;;
25810;SDS011;13645;52.460;13.910;2022-10-16T08:05:50;3.72;;;1.15;;
25810;SDS011;13645;52.460;13.910;2022-10-16T08:08:17;3.90;;;1.40;;
25810;SDS011;13645;52.460;13.910;2022-10-16T08:10:44;3.00;;;1.10;;
25810;SDS011;13645;52.460;13.910;2022-10-16T08:13:11;3.83;;;1.30;;
25810;SDS011;13645;52.460;13.910;2022-10-16T08:15:41;3.10;;;1.20;;
25810;SDS011;13645;52.460;13.910;2022-10-16T08:18:09;3.42;;;1.80;;
25810;SDS011;13645;52.460;13.910;2022-10-16T08:26:58;3.08;;;1.00;;
25810;SDS011;13645;52.460;13.910;2022-10-16T08:34:00;2.20;;;1.20;;
25810;SDS011;13645;52.460;13.910;2022-10-16T08:36:26;3.78;;;1.48;;
25810;SDS011;13645;52.460;13.910;2022-10-16T08:38:53;1.40;;;1.10;;
25810;SDS011;13645;52.460;13.910;2022-10-16T08:44:20;4.95;;;1.55;;
25810;SDS011;13645;52.460;13.910;2022-10-16T08:46:54;3.20;;;1.30;;
25810;SDS011;13645;52.460;13.910;2022-10-16T08:49:33;2.80;;;1.27;;
25810;SDS011;13645;52.460;13.910;2022-10-16T08:52:00;4.78;;;2.20;;
25810;SDS011;13645;52.460;13.910;2022-10-16T08:54:28;3.90;;;1.10;;
25810;SDS011;13645;52.460;13.910;2022-10-16T08:57:15;2.65;;;1.38;;
25810;SDS011;13645;52.460;13.910;2022-10-16T08:59:49;1.42;;;1.00;;
25810;SDS011;13645;52.460;13.910;2022-10-16T09:02:24;3.15;;;1.30;;
25810;SDS011;13645;52.460;13.910;2022-10-16T09:12:55;2.47;;;1.15;;
25810;SDS011;13645;52.460;13.910;2022-10-16T09:15:35;2.80;;;2.25;;
25810;SDS011;13645;52.460;13.910;2022-10-16T09:18:22;4.72;;;1.00;;
25810;SDS011;13645;52.460;13.910;2022-10-16T09:24:00;2.70;;;1.30;;
25810;SDS011;13645;52.460;13.910;2022-10-16T09:26:42;2.55;;;1.13;;
25810;SDS011;13645;52.460;13.910;2022-10-16T09:29:11;7.88;;;1.80;;
25810;SDS011;13645;52.460;13.910;2022-10-16T09:31:39;1.80;;;0.88;;
25810;SDS011;13645;52.460;13.910;2022-10-16T09:34:11;2.50;;;0.93;;
25810;SDS011;13645;52.460;13.910;2022-10-16T09:36:56;1.20;;;0.70;;
25810;SDS011;13645;52.460;13.910;2022-10-16T09:39:24;4.53;;;1.35;;
25810;SDS011;13645;52.460;13.910;2022-10-16T09:41:51;0.93;;;0.90;;
25810;SDS011;13645;52.460;13.910;2022-10-16T09:44:20;1.88;;;0.90;;
25810;SDS011;13645;52.460;13.910;2022-10-16T09:49:30;1.30;;;0.80;;
25810;SDS011;13645;52.460;13.910;2022-10-16T09:52:04;1.05;;;0.77;;
25810;SDS011;13645;52.460;13.910;2022-10-16T09:54:32;6.82;;;2.22;;
25810;SDS011;13645;52.460;13.910;2022-10-16T09:57:05;3.67;;;0.90;;
25810;SDS011;13645;52.460;13.910;2022-10-16T09:59:44;1.65;;;0.77;;
25810;SDS011;13645;52.460;13.910;2022-10-16T10:09:38;7.70;;;1.17;;
25810;SDS011;13645;52.460;13.910;2022-10-16T10:12:21;4.95;;;1.00;;
25810;SDS011;13645;52.460;13.910;2022-10-16T10:21:14;1.38;;;1.00;;
25810;SDS011;13645;52.460;13.910;2022-10-16T10:23:59;1.45;;;0.50;;
25810;SDS011;13645;52.460;13.910;2022-10-16T10:29:59;0.73;;;0.60;;
25810;SDS011;13645;52.460;13.910;2022-10-16T10:42:43;0.95;;;0.80;;
25810;SDS011;13645;52.460;13.910;2022-10-16T10:45:49;2.28;;;0.70;;
25810;SDS011;13645;52.460;13.910;2022-10-16T10:56:39;6.32;;;0.80;;
25810;SDS011;13645;52.460;13.910;2022-10-16T10:59:32;1.70;;;0.80;;
25810;SDS011;13645;52.460;13.910;2022-10-16T11:05:47;1.25;;;0.90;;
25810;SDS011;13645;52.460;13.910;2022-10-16T11:12:45;2.35;;;0.80;;
25810;SDS011;13645;52.460;13.910;2022-10-16T11:15:46;0.80;;;0.73;;
25810;SDS011;13645;52.460;13.910;2022-10-16T11:19:03;5.47;;;0.80;;
25810;SDS011;13645;52.460;13.910;2022-10-16T11:22:21;4.88;;;0.80;;
25810;SDS011;13645;52.460;13.910;2022-10-16T11:25:45;2.50;;;0.70;;
25810;SDS011;13645;52.460;13.910;2022-10-16T11:29:23;4.00;;;0.70;;
25810;SDS011;13645;52.460;13.910;2022-10-16T11:39:50;0.90;;;0.60;;
25810;SDS011;13645;52.460;13.910;2022-10-16T11:46:02;1.17;;;0.60;;
25810;SDS011;13645;52.460;13.910;2022-10-16T11:52:20;1.70;;;0.90;;
25810;SDS011;13645;52.460;13.910;2022-10-16T11:55:13;7.25;;;0.65;;
25810;SDS011;13645;52.460;13.910;2022-10-16T11:58:03;1.92;;;0.45;;
25810;SDS011;13645;52.460;13.910;2022-10-16T12:07:16;0.70;;;0.52;;
25810;SDS011;13645;52.460;13.910;2022-10-16T12:17:20;1.42;;;0.60;;
25810;SDS011;13645;52.460;13.910;2022-10-16T12:20:22;2.58;;;0.70;;
25810;SDS011;13645;52.460;13.910;2022-10-16T12:26:22;0.60;;;0.60;;
25810;SDS011;13645;52.460;13.910;2022-10-16T12:29:17;3.30;;;0.50;;
25810;SDS011;13645;52.460;13.910;2022-10-16T12:32:36;1.67;;;0.63;;
25810;SDS011;13645;52.460;13.910;2022-10-16T12:35:23;1.45;;;0.52;;
25810;SDS011;13645;52.460;13.910;2022-10-16T12:38:03;0.75;;;0.57;;
25810;SDS011;13645;52.460;13.910;2022-10-16T12:44:26;1.95;;;0.52;;
25810;SDS011;13645;52.460;13.910;2022-10-16T12:53:27;1.65;;;0.40;;
25810;SDS011;13645;52.460;13.910;2022-10-16T12:59:32;2.90;;;0.40;;
25810;SDS011;13645;52.460;13.910;2022-10-16T13:15:02;1.55;;;0.40;;
25810;SDS011;13645;52.460;13.910;2022-10-16T13:30:57;1.70;;;0.60;;
25810;SDS011;13645;52.460;13.910;2022-10-16T13:33:41;0.57;;;0.40;;
25810;SDS011;13645;52.460;13.910;2022-10-16T13:36:19;1.92;;;0.50;;
25810;SDS011;13645;52.460;13.910;2022-10-16T13:39:11;1.48;;;0.45;;
25810;SDS011;13645;52.460;13.910;2022-10-16T13:41:41;1.58;;;0.55;;
25810;SDS011;13645;52.460;13.910;2022-10-16T13:44:15;4.28;;;0.43;;
25810;SDS011;13645;52.460;13.910;2022-10-16T13:46:59;0.43;;;0.40;;
25810;SDS011;13645;52.460;13.910;2022-10-16T13:50:12;0.60;;;0.52;;
25810;SDS011;13645;52.460;13.910;2022-10-16T13:52:47;3.22;;;0.63;;
25810;SDS011;13645;52.460;13.910;2022-10-16T13:55:42;0.90;;;0.40;;
25810;SDS011;13645;52.460;13.910;2022-10-16T13:58:33;0.82;;;0.40;;
25810;SDS011;13645;52.460;13.910;2022-10-16T14:04:04;0.40;;;0.40;;
25810;SDS011;13645;52.460;13.910;2022-10-16T14:06:36;1.42;;;0.45;;
25810;SDS011;13645;52.460;13.910;2022-10-16T14:09:28;1.38;;;0.30;;
25810;SDS011;13645;52.460;13.910;2022-10-16T14:12:11;0.38;;;0.38;;
25810;SDS011;13645;52.460;13.910;2022-10-16T14:14:41;0.70;;;0.50;;
25810;SDS011;13645;52.460;13.910;2022-10-16T14:19:59;2.58;;;0.70;;
25810;SDS011;13645;52.460;13.910;2022-10-16T14:22:34;2.95;;;0.50;;
25810;SDS011;13645;52.460;13.910;2022-10-16T14:30:58;3.25;;;0.65;;
25810;SDS011;13645;52.460;13.910;2022-10-16T14:36:06;1.50;;;0.52;;
25810;SDS011;13645;52.460;13.910;2022-10-16T14:38:42;2.38;;;0.70;;
25810;SDS011;13645;52.460;13.910;2022-10-16T14:41:19;1.52;;;0.50;;
25810;SDS011;13645;52.460;13.910;2022-10-16T14:43:53;1.15;;;0.60;;
25810;SDS011;13645;52.460;13.910;2022-10-16T14:46:42;1.05;;;0.60;;
25810;SDS011;13645;52.460;13.910;2022-10-16T14:51:39;3.83;;;0.50;;
25810;SDS011;13645;52.460;13.910;2022-10-16T14:54:18;1.30;;;0.40;;
25810;SDS011;13645;52.460;13.910;2022-10-16T14:56:52;2.50;;;0.60;;
25810;SDS011;13645;52.460;13.910;2022-10-16T14:59:29;0.40;;;0.30;;
25810;SDS011;13645;52.460;13.910;2022-10-16T15:01:59;0.65;;;0.60;;
25810;SDS011;13645;52.460;13.910;2022-10-16T15:04:47;1.27;;;0.70;;
25810;SDS011;13645;52.460;13.910;2022-10-16T15:07:35;3.30;;;0.68;;
25810;SDS011;13645;52.460;13.910;2022-10-16T15:10:13;0.85;;;0.60;;
25810;SDS011;13645;52.460;13.910;2022-10-16T15:12:43;3.00;;;0.70;;
25810;SDS011;13645;52.460;13.910;2022-10-16T15:17:55;4.95;;;0.73;;
25810;SDS011;13645;52.460;13.910;2022-10-16T15:20:27;4.78;;;0.90;;
25810;SDS011;13645;52.460;13.910;2022-10-16T15:22:56;1.63;;;0.60;;
25810;SDS011;13645;52.460;13.910;2022-10-16T15:25:37;2.05;;;1.08;;
25810;SDS011;13645;52.460;13.910;2022-10-16T15:28:08;4.45;;;1.35;;
25810;SDS011;13645;52.460;13.910;2022-10-16T15:30:39;0.88;;;0.85;;
25810;SDS011;13645;52.460;13.910;2022-10-16T15:33:15;4.30;;;2.47;;
25810;SDS011;13645;52.460;13.910;2022-10-16T15:35:52;8.32;;;2.30;;
25810;SDS011;13645;52.460;13.910;2022-10-16T15:38:20;6.13;;;2.22;;
25810;SDS011;13645;52.460;13.910;2022-10-16T15:40:57;5.10;;;1.40;;
25810;SDS011;13645;52.460;13.910;2022-10-16T15:43:31;2.65;;;1.30;;
25810;SDS011;13645;52.460;13.910;2022-10-16T15:46:08;2.20;;;0.88;;
25810;SDS011;13645;52.460;13.910;2022-10-16T15:48:40;1.42;;;0.80;;
25810;SDS011;13645;52.460;13.910;2022-10-16T15:51:18;3.45;;;0.88;;
25810;SDS011;13645;52.460;13.910;2022-10-16T15:53:48;3.50;;;1.00;;
25810;SDS011;13645;52.460;13.910;2022-10-16T15:56:23;2.10;;;0.90;;
25810;SDS011;13645;52.460;13.910;2022-10-16T15:59:23;1.40;;;1.00;;
25810;SDS011;13645;52.460;13.910;2022-10-16T16:01:52;3.10;;;1.27;;
25810;SDS011;13645;52.460;13.910;2022-10-16T16:04:34;5.15;;;1.20;;
25810;SDS011;13645;52.460;13.910;2022-10-16T16:07:12;6.07;;;1.33;;
25810;SDS011;13645;52.460;13.910;2022-10-16T16:09:42;2.45;;;1.38;;
25810;SDS011;13645;52.460;13.910;2022-10-16T16:12:15;3.78;;;1.60;;
25810;SDS011;13645;52.460;13.910;2022-10-16T16:14:47;7.60;;;1.77;;
25810;SDS011;13645;52.460;13.910;2022-10-16T16:17:23;5.30;;;1.40;;
25810;SDS011;13645;52.460;13.910;2022-10-16T16:19:56;9.93;;;1.42;;
25810;SDS011;13645;52.460;13.910;2022-10-16T16:22:28;2.90;;;1.33;;
25810;SDS011;13645;52.460;13.910;2022-10-16T16:24:57;12.10;;;1.25;;
25810;SDS011;13645;52.460;13.910;2022-10-16T16:27:30;15.70;;;1.67;;
25810;SDS011;13645;52.460;13.910;2022-10-16T16:30:15;10.80;;;1.50;;
25810;SDS011;13645;52.460;13.910;2022-10-16T16:32:56;8.07;;;1.27;;
25810;SDS011;13645;52.460;13.910;2022-10-16T16:35:39;4.03;;;1.20;;
25810;SDS011;13645;52.460;13.910;2022-10-16T16:38:08;10.10;;;1.20;;
25810;SDS011;13645;52.460;13.910;2022-10-16T16:40:37;4.80;;;1.40;;
25810;SDS011;13645;52.460;13.910;2022-10-16T16:43:07;9.18;;;1.42;;
25810;SDS011;13645;52.460;13.910;2022-10-16T16:45:37;8.77;;;1.10;;
25810;SDS011;13645;52.460;13.910;2022-10-16T16:48:06;6.13;;;1.20;;
25810;SDS011;13645;52.460;13.910;2022-10-16T16:50:36;7.65;;;1.50;;
25810;SDS011;13645;52.460;13.910;2022-10-16T16:53:10;5.85;;;1.27;;
25810;SDS011;13645;52.460;13.910;2022-10-16T16:55:37;5.15;;;1.75;;
25810;SDS011;13645;52.460;13.910;2022-10-16T16:58:04;5.20;;;2.15;;
25810;SDS011;13645;52.460;13.910;2022-10-16T17:00:30;8.02;;;2.15;;
25810;SDS011;13645;52.460;13.910;2022-10-16T17:02:57;7.60;;;2.72;;
25810;SDS011;13645;52.460;13.910;2022-10-16T17:05:24;6.47;;;3.35;;
25810;SDS011;13645;52.460;13.910;2022-10-16T17:07:51;6.90;;;3.28;;
25810;SDS011;13645;52.460;13.910;2022-10-16T17:10:18;10.65;;;2.92;;
25810;SDS011;13645;52.460;13.910;2022-10-16T17:12:48;4.65;;;2.40;;
25810;SDS011;13645;52.460;13.910;2022-10-16T17:15:15;9.40;;;2.50;;
25810;SDS011;13645;52.460;13.910;2022-10-16T17:17:44;8.30;;;3.50;;
25810;SDS011;13645;52.460;13.910;2022-10-16T17:20:13;9.57;;;5.65;;
25810;SDS011;13645;52.460;13.910;2022-10-16T17:22:40;13.30;;;7.10;;
25810;SDS011;13645;52.460;13.910;2022-10-16T17:25:07;12.70;;;6.90;;
25810;SDS011;13645;52.460;13.910;2022-10-16T17:27:34;13.00;;;6.30;;
25810;SDS011;13645;52.460;13.910;2022-10-16T17:30:02;9.45;;;5.93;;
25810;SDS011;13645;52.460;13.910;2022-10-16T17:32:30;14.40;;;5.47;;
25810;SDS011;13645;52.460;13.910;2022-10-16T17:34:56;15.00;;;5.25;;
25810;SDS011;13645;52.460;13.910;2022-10-16T17:37:23;6.32;;;4.07;;
25810;SDS011;13645;52.460;13.910;2022-10-16T17:39:50;9.38;;;3.60;;
25810;SDS011;13645;52.460;13.910;2022-10-16T17:42:17;8.80;;;4.13;;
25810;SDS011;13645;52.460;13.910;2022-10-16T17:44:47;13.45;;;4.38;;
25810;SDS011;13645;52.460;13.910;2022-10-16T17:47:17;5.68;;;3.72;;
25810;SDS011;13645;52.460;13.910;2022-10-16T17:49:46;9.32;;;4.07;;
25810;SDS011;13645;52.460;13.910;2022-10-16T17:52:16;17.45;;;3.83;;
25810;SDS011;13645;52.460;13.910;2022-10-16T17:54:45;7.30;;;3.30;;
25810;SDS011;13645;52.460;13.910;2022-10-16T17:57:11;8.07;;;3.20;;
25810;SDS011;13645;52.460;13.910;2022-10-16T17:59:41;5.35;;;2.67;;
25810;SDS011;13645;52.460;13.910;2022-10-16T18:02:10;7.35;;;3.33;;
25810;SDS011;13645;52.460;13.910;2022-10-16T18:04:37;8.02;;;3.70;;
25810;SDS011;13645;52.460;13.910;2022-10-16T18:07:04;8.70;;;3.55;;